Time;durP1;ratioP1;P1;durP2;ratioP2;P2;SDS_P1;SDS_P2;PMS_P1;PMS_P2;Temp;Humidity;BMP_temperature;BMP_pressure;BME280_temperature;BME280_humidity;BME280_pressure;Samples;Min_cycle;Max_cycle;Signal;HPM_P1;HPM_P2
2021/08/14 00:06:03;;;;;;;6.72;1.85;;;24.60;99.90;;;;;;20623808;28;20207;-79
2021/08/14 00:16:08;;;;;;;2.00;1.58;;;25.00;99.90;;;;;;20678151;28;20205;-83
2021/08/14 00:26:12;;;;;;;3.47;1.55;;;25.50;99.90;;;;;;20610903;28;20204;-83
2021/08/14 00:36:17;;;;;;;2.88;1.27;;;25.50;99.90;;;;;;20666223;28;20214;-78
2021/08/14 00:46:21;;;;;;;2.13;1.92;;;25.60;99.90;;;;;;20701075;28;20187;-79
2021/08/14 00:56:27;;;;;;;1.60;1.25;;;25.50;99.90;;;;;;20699927;28;20223;-79
2021/08/14 01:06:31;;;;;;;2.55;1.65;;;25.10;99.90;;;;;;20671975;28;20881;-78
2021/08/14 01:16:37;;;;;;;2.35;1.58;;;24.70;99.90;;;;;;20613826;28;20218;-80
2021/08/14 01:26:42;;;;;;;1.85;1.55;;;24.60;99.90;;;;;;20616199;28;20242;-78
2021/08/14 01:36:47;;;;;;;8.15;2.00;;;24.40;99.90;;;;;;20613480;28;20195;-79
2021/08/14 01:46:52;;;;;;;4.40;2.65;;;24.70;99.90;;;;;;20615793;28;20691;-80
2021/08/14 01:56:56;;;;;;;1.70;1.35;;;24.40;99.90;;;;;;20604849;28;20584;-78
2021/08/14 02:07:01;;;;;;;1.58;1.17;;;24.20;99.90;;;;;;20569388;23;20474;-79
2021/08/14 02:17:05;;;;;;;1.40;1.27;;;23.90;99.90;;;;;;20518701;28;20243;-80
2021/08/14 02:27:10;;;;;;;12.87;2.23;;;24.00;99.90;;;;;;20538068;28;20578;-81
2021/08/14 02:37:14;;;;;;;4.97;3.40;;;23.70;99.90;;;;;;20602142;28;20199;-82
2021/08/14 02:47:19;;;;;;;1.83;1.73;;;23.70;99.90;;;;;;20634427;28;20234;-83
2021/08/14 02:57:23;;;;;;;2.93;1.37;;;23.70;99.90;;;;;;20633732;28;20569;-78
2021/08/14 03:07:30;;;;;;;7.85;1.90;;;23.80;99.90;;;;;;20620470;23;20275;-79
2021/08/14 03:17:34;;;;;;;2.23;1.57;;;23.90;99.90;;;;;;20625534;28;20953;-78
2021/08/14 03:27:39;;;;;;;2.53;2.03;;;23.80;99.90;;;;;;20625491;28;20227;-78
2021/08/14 03:37:42;;;;;;;3.73;1.70;;;23.90;99.90;;;;;;20679935;28;20199;-78
2021/08/14 03:47:48;;;;;;;2.90;2.20;;;23.80;99.90;;;;;;20657219;28;20237;-79
2021/08/14 03:57:51;;;;;;;1.90;1.07;;;23.80;99.90;;;;;;20624468;28;20207;-80
2021/08/14 04:07:56;;;;;;;3.57;1.47;;;23.70;99.90;;;;;;20621730;28;20715;-80
2021/08/14 04:18:00;;;;;;;3.43;1.63;;;23.50;99.90;;;;;;20644135;28;20203;-80
2021/08/14 04:28:05;;;;;;;1.73;1.17;;;23.50;99.90;;;;;;20702630;28;20233;-85
2021/08/14 04:38:09;;;;;;;2.97;2.15;;;23.60;99.90;;;;;;20705518;28;20195;-84
2021/08/14 04:48:14;;;;;;;1.50;1.13;;;23.50;99.90;;;;;;20702615;28;20218;-84
2021/08/14 04:58:17;;;;;;;7.70;2.13;;;23.20;99.90;;;;;;20704108;28;20202;-85
2021/08/14 05:08:23;;;;;;;2.77;2.50;;;23.10;99.90;;;;;;20656810;28;20239;-80
2021/08/14 05:18:26;;;;;;;4.80;2.47;;;22.90;99.90;;;;;;20618618;28;20206;-79
2021/08/14 05:28:32;;;;;;;1.80;1.57;;;23.20;99.90;;;;;;20616491;28;20226;-78
2021/08/14 05:38:36;;;;;;;8.03;1.83;;;23.10;99.90;;;;;;20617206;28;20299;-80
2021/08/14 05:48:41;;;;;;;1.43;1.10;;;23.40;99.90;;;;;;20615747;28;20588;-79
2021/08/14 05:58:44;;;;;;;2.40;1.20;;;23.60;99.90;;;;;;20615370;28;20586;-80
2021/08/14 06:08:51;;;;;;;1.55;1.45;;;23.90;99.90;;;;;;20597050;28;20235;-79
2021/08/14 06:18:54;;;;;;;2.58;2.17;;;24.40;99.90;;;;;;20599003;28;20198;-80
2021/08/14 06:29:00;;;;;;;3.83;1.40;;;24.70;99.90;;;;;;20616622;28;20235;-77
2021/08/14 06:39:03;;;;;;;2.85;1.95;;;25.20;99.90;;;;;;20599370;28;20529;-82
2021/08/14 06:49:08;;;;;;;4.47;2.42;;;25.60;99.90;;;;;;20646700;28;20655;-82
2021/08/14 06:59:12;;;;;;;1.45;1.25;;;25.90;99.90;;;;;;20616088;28;20648;-72
2021/08/14 07:09:18;;;;;;;2.95;2.58;;;26.30;99.90;;;;;;20595100;28;20258;-77
2021/08/14 07:19:21;;;;;;;9.02;2.42;;;26.70;99.90;;;;;;20623841;28;20606;-77
2021/08/14 07:29:27;;;;;;;20.77;2.65;;;26.80;99.90;;;;;;20628333;28;21241;-79
2021/08/14 07:39:30;;;;;;;11.25;3.17;;;26.80;99.90;;;;;;20628805;28;20203;-79
2021/08/14 07:49:35;;;;;;;5.53;2.50;;;27.10;99.90;;;;;;20628501;28;20986;-80
2021/08/14 07:59:39;;;;;;;2.70;2.05;;;27.10;99.90;;;;;;20634478;28;20245;-79
2021/08/14 08:09:44;;;;;;;8.00;3.67;;;27.20;99.90;;;;;;20630490;28;20223;-81
2021/08/14 08:19:48;;;;;;;8.40;4.10;;;27.30;99.90;;;;;;20630838;28;20879;-78
2021/08/14 08:29:53;;;;;;;2.03;1.83;;;27.30;99.90;;;;;;20627931;28;20309;-80
2021/08/14 08:39:57;;;;;;;4.10;2.45;;;27.60;99.90;;;;;;20622873;28;20350;-76
2021/08/14 08:50:05;;;;;;;5.63;2.58;;;27.60;99.90;;;;;;20620550;28;20231;-79
2021/08/14 09:00:14;;;;;;;3.53;1.98;;;27.70;99.90;;;;;;20625635;28;20294;-78
2021/08/14 09:10:24;;;;;;;3.97;2.67;;;27.60;99.90;;;;;;20620055;28;20234;-73
2021/08/14 09:20:27;;;;;;;7.18;1.98;;;27.80;99.90;;;;;;20603892;28;20201;-77
2021/08/14 09:30:48;;;;;;;2.58;2.10;;;28.00;99.90;;;;;;20619876;28;20302;-78
2021/08/14 09:40:53;;;;;;;8.55;3.08;;;28.00;99.90;;;;;;20600772;28;20195;-81
2021/08/14 09:50:59;;;;;;;4.95;2.83;;;28.40;99.90;;;;;;20607917;28;20230;-73
2021/08/14 10:01:05;;;;;;;7.55;3.90;;;28.60;99.90;;;;;;20615291;28;20224;-80
2021/08/14 10:11:13;;;;;;;10.15;3.88;;;29.00;99.90;;;;;;20615706;28;20219;-80
2021/08/14 10:21:17;;;;;;;6.28;4.65;;;29.20;99.90;;;;;;20616558;28;20198;-79
2021/08/14 10:31:50;;;;;;;6.38;4.03;;;29.40;99.90;;;;;;20619343;28;20219;-79
2021/08/14 10:41:55;;;;;;;5.32;3.45;;;29.30;99.90;;;;;;20596853;28;20243;-76
2021/08/14 10:52:14;;;;;;;5.03;2.67;;;29.40;99.90;;;;;;20617732;28;20229;-82
2021/08/14 11:02:34;;;;;;;7.40;2.28;;;29.90;99.90;;;;;;20633381;28;20224;-79
2021/08/14 11:12:41;;;;;;;2.30;1.77;;;30.60;99.90;;;;;;20635247;28;20289;-82
2021/08/14 11:22:45;;;;;;;5.57;2.53;;;30.90;99.90;;;;;;20634382;28;20230;-84
2021/08/14 11:32:50;;;;;;;3.08;2.30;;;32.00;99.90;;;;;;20632668;28;20592;-79
2021/08/14 11:42:57;;;;;;;8.07;5.72;;;31.70;99.90;;;;;;20608697;28;20211;-85
2021/08/14 11:53:03;;;;;;;2.72;1.92;;;33.20;99.90;;;;;;20612763;28;20227;-83
2021/08/14 12:03:11;;;;;;;3.08;2.33;;;33.50;99.90;;;;;;20622339;28;20575;-81
2021/08/14 12:13:22;;;;;;;5.22;2.97;;;33.50;99.90;;;;;;20543394;28;20319;-80
2021/08/14 12:23:36;;;;;;;1.35;0.93;;;33.80;99.90;;;;;;20540826;28;20192;-84
2021/08/14 12:33:48;;;;;;;3.47;2.60;;;35.20;99.90;;;;;;20547861;28;20222;-83
2021/08/14 12:43:53;;;;;;;2.03;1.75;;;35.90;99.90;;;;;;20542766;28;20677;-79
2021/08/14 12:54:10;;;;;;;3.78;3.17;;;36.00;99.90;;;;;;20551296;28;20238;-88
2021/08/14 13:04:13;;;;;;;5.00;2.50;;;36.00;99.90;;;;;;20578569;28;20250;-75
2021/08/14 13:14:19;;;;;;;5.38;2.33;;;35.80;99.90;;;;;;20617735;28;20322;-76
2021/08/14 13:24:24;;;;;;;3.60;2.30;;;36.20;99.90;;;;;;20617091;28;20230;-78
2021/08/14 13:34:29;;;;;;;2.22;1.85;;;37.10;99.90;;;;;;20620016;28;20585;-78
2021/08/14 13:44:33;;;;;;;1.65;1.20;;;36.80;99.90;;;;;;20615040;28;20195;-76
2021/08/14 13:54:38;;;;;;;4.22;2.30;;;36.60;99.90;;;;;;20616622;28;20219;-77
2021/08/14 14:04:42;;;;;;;2.35;1.42;;;35.70;99.90;;;;;;20615734;28;20235;-76
2021/08/14 14:14:47;;;;;;;2.85;1.70;;;36.80;99.90;;;;;;20597994;28;20234;-80
2021/08/14 14:24:51;;;;;;;10.02;1.85;;;36.50;99.90;;;;;;20623067;28;20199;-80
2021/08/14 14:34:56;;;;;;;2.45;1.92;;;37.70;99.90;;;;;;20618109;28;20644;-79
2021/08/14 14:45:00;;;;;;;3.88;2.17;;;38.30;99.90;;;;;;20614685;28;20230;-82
2021/08/14 14:55:08;;;;;;;3.92;2.08;;;37.60;99.90;;;;;;20618359;28;20330;-80
2021/08/14 15:05:13;;;;;;;7.85;1.85;;;37.50;99.90;;;;;;20615806;28;20232;-83
2021/08/14 15:15:22;;;;;;;3.53;1.85;;;37.80;99.90;;;;;;20613117;28;20227;-85
2021/08/14 15:25:26;;;;;;;2.60;1.58;;;37.30;99.90;;;;;;20615818;28;20607;-82
2021/08/14 15:35:31;;;;;;;5.47;2.38;;;36.50;99.90;;;;;;20613087;28;20237;-82
2021/08/14 15:45:35;;;;;;;4.82;2.35;;;35.90;99.90;;;;;;20610464;28;20201;-84
2021/08/14 15:55:40;;;;;;;6.20;2.33;;;34.60;99.90;;;;;;20625647;28;20588;-77
2021/08/14 16:05:44;;;;;;;3.10;2.15;;;33.10;99.90;;;;;;20607427;28;20234;-78
2021/08/14 16:15:49;;;;;;;3.22;1.88;;;32.60;99.90;;;;;;20621497;28;20585;-77
2021/08/14 16:25:53;;;;;;;5.20;2.85;;;32.10;99.90;;;;;;20622279;28;20278;-81
2021/08/14 16:35:58;;;;;;;4.13;2.00;;;31.70;99.90;;;;;;20618957;28;20234;-81
2021/08/14 16:46:02;;;;;;;6.47;2.72;;;31.80;99.90;;;;;;20620943;28;20495;-84
2021/08/14 16:56:08;;;;;;;3.60;1.98;;;31.50;99.90;;;;;;20625562;28;20236;-81
2021/08/14 17:06:11;;;;;;;4.68;3.03;;;30.70;99.90;;;;;;20601663;28;20554;-73
2021/08/14 17:16:16;;;;;;;4.03;2.60;;;30.10;99.90;;;;;;20615051;28;20543;-73
2021/08/14 17:26:20;;;;;;;2.40;2.05;;;31.00;99.90;;;;;;20614311;28;20353;-72
2021/08/14 17:36:25;;;;;;;9.02;1.35;;;30.10;99.90;;;;;;20612896;28;20234;-75
2021/08/14 17:46:29;;;;;;;2.92;2.28;;;29.50;99.90;;;;;;20616683;28;20298;-73
2021/08/14 17:56:34;;;;;;;3.63;2.65;;;29.50;99.90;;;;;;20614576;28;20223;-76
2021/08/14 18:06:38;;;;;;;3.85;2.67;;;29.30;99.90;;;;;;20618762;28;20531;-74
2021/08/14 18:16:43;;;;;;;2.65;2.00;;;29.20;99.90;;;;;;20594532;28;20230;-74
2021/08/14 18:26:46;;;;;;;6.40;1.50;;;29.20;99.90;;;;;;20593270;28;20506;-73
2021/08/14 18:36:53;;;;;;;3.95;2.40;;;29.00;99.90;;;;;;20597819;28;20219;-74
2021/08/14 18:46:57;;;;;;;6.18;1.70;;;28.90;99.90;;;;;;20591818;28;20617;-75
2021/08/14 18:57:02;;;;;;;2.28;1.90;;;28.90;99.90;;;;;;20612690;28;20371;-75
2021/08/14 19:07:06;;;;;;;2.72;1.90;;;28.40;99.90;;;;;;20609409;28;20362;-75
2021/08/14 19:17:12;;;;;;;5.22;2.28;;;28.40;99.90;;;;;;20606607;28;20691;-75
2021/08/14 19:27:15;;;;;;;8.02;3.08;;;28.20;99.90;;;;;;20628391;28;20207;-77
2021/08/14 19:37:20;;;;;;;4.38;1.77;;;28.00;99.90;;;;;;20627232;28;20228;-80
2021/08/14 19:47:28;;;;;;;3.95;2.75;;;28.00;99.90;;;;;;20624944;28;20208;-79
2021/08/14 19:57:34;;;;;;;11.63;2.03;;;27.80;99.90;;;;;;20608290;28;20584;-80
2021/08/14 20:07:38;;;;;;;6.55;2.72;;;27.50;99.90;;;;;;20625645;28;20227;-80
2021/08/14 20:17:43;;;;;;;3.83;2.08;;;27.50;99.90;;;;;;20606794;28;20219;-79
2021/08/14 20:27:46;;;;;;;2.75;1.42;;;27.30;99.90;;;;;;20622432;28;20203;-80
2021/08/14 20:37:51;;;;;;;5.40;3.05;;;27.20;99.90;;;;;;20603619;28;20231;-80
2021/08/14 20:47:57;;;;;;;0.98;0.98;;;27.10;99.90;;;;;;20619470;28;20398;-78
2021/08/14 20:58:02;;;;;;;3.38;1.23;;;27.00;99.90;;;;;;20614446;28;20560;-76
2021/08/14 21:08:07;;;;;;;1.95;1.45;;;27.00;99.90;;;;;;20610491;28;20552;-74
2021/08/14 21:18:12;;;;;;;11.25;1.90;;;26.90;99.90;;;;;;20594032;28;20223;-75
2021/08/14 21:28:15;;;;;;;4.80;2.67;;;26.80;99.90;;;;;;20616132;28;20222;-73
2021/08/14 21:38:20;;;;;;;2.35;1.40;;;26.60;99.90;;;;;;20614696;28;20706;-75
2021/08/14 21:48:24;;;;;;;1.48;1.38;;;26.50;99.90;;;;;;20597481;28;20600;-74
2021/08/14 21:58:29;;;;;;;3.00;1.85;;;26.30;99.90;;;;;;20612050;28;20227;-74
2021/08/14 22:08:33;;;;;;;3.25;2.58;;;26.40;99.90;;;;;;20613501;28;20227;-78
2021/08/14 22:18:38;;;;;;;0.93;0.57;;;26.40;99.90;;;;;;20611765;28;20220;-75
2021/08/14 22:28:42;;;;;;;14.25;2.80;;;26.60;99.90;;;;;;20612673;28;20553;-73
2021/08/14 22:38:47;;;;;;;1.42;1.25;;;26.50;99.90;;;;;;20611918;28;20226;-74
2021/08/14 22:48:50;;;;;;;2.33;2.10;;;26.60;99.90;;;;;;20616288;28;20214;-74
2021/08/14 22:58:55;;;;;;;22.67;1.75;;;26.70;99.90;;;;;;20623196;28;20289;-75
2021/08/14 23:08:59;;;;;;;2.92;1.05;;;26.80;99.90;;;;;;20626819;28;20232;-73
2021/08/14 23:19:04;;;;;;;12.18;1.55;;;26.80;99.90;;;;;;20626389;28;20238;-75
2021/08/14 23:29:10;;;;;;;1.60;1.50;;;26.70;99.90;;;;;;20623108;28;20196;-74
2021/08/14 23:39:15;;;;;;;4.10;2.13;;;26.80;99.90;;;;;;20624514;28;21230;-74
2021/08/14 23:49:19;;;;;;;2.25;1.73;;;26.60;99.90;;;;;;20622241;28;20192;-75
2021/08/14 23:59:24;;;;;;;4.50;2.17;;;26.50;99.90;;;;;;20621543;28;20233;-74
